Flight Track Log - Related Links

Times and Time Zones

All times are in EST time to prevent confusion due to time zone crossing. See the N884FT flight status page for this flight to view local times or setup timezone preferences in your user account.

Time Position Orientation Groundspeed Altitude Reporting Facility
EST Latitude Longitude Course Direction KTS MPH feet Rate Location/Type
Tue 08:07:25 PM 28.1000 -80.6500 90° East 72 83 700  Level Orlando TRACON
Tue 08:07:43 PM 28.1000 -80.6333 90° East 72 83 1,100 917 Climbing Orlando TRACON
Tue 08:08:37 PM 28.1000 -80.6167 90° East 79 91 1,800 678 Climbing Orlando TRACON
Tue 08:09:38 PM 28.1000 -80.6000 90° East 108 124 2,400 595 Climbing Orlando TRACON
Tue 08:10:38 PM 28.0667 -80.6167 204° Southwest 135 155 3,000 600 Climbing Orlando TRACON
Tue 08:11:38 PM 28.0833 -80.6500 300° West 141 162 3,600 500 Climbing Orlando TRACON
Tue 08:12:38 PM 28.0833 -80.7000 270° West 146 168 4,000 200 Climbing Orlando TRACON
Tue 08:13:38 PM 28.0833 -80.7500 270° West 157 181 4,000  Level Orlando TRACON
Tue 08:14:38 PM 28.0833 -80.8000 270° West 159 183 4,000  Level Orlando TRACON
Tue 08:15:38 PM 28.0833 -80.8500 270° West 159 183 4,000  Level Orlando TRACON
Tue 08:16:38 PM 28.1000 -80.9000 291° West 161 185 4,000  Level Orlando TRACON
Tue 08:17:38 PM 28.1000 -80.9500 270° West 163 188 4,000 50 Level Orlando TRACON
Tue 08:18:38 PM 28.1000 -81.0000 270° West 160 184 4,100  Climbing Orlando TRACON
Tue 08:19:38 PM 28.1000 -81.0500 270° West 168 193 4,000 -50 Descending Orlando TRACON
Tue 08:20:38 PM 28.1000 -81.1000 270° West 161 185 4,000  Level Orlando TRACON
Tue 08:21:38 PM 28.1000 -81.1500 270° West 163 188 4,000  Level Orlando TRACON
Tue 08:22:38 PM 28.1000 -81.2000 270° West 166 191 4,000  Level Orlando TRACON
Tue 08:23:38 PM 28.0833 -81.2500 249° West 164 189 4,000  Level Orlando TRACON
Tue 08:24:39 PM 28.0833 -81.3000 270° West 164 189 4,000  Level Orlando TRACON
Tue 08:25:39 PM 28.0667 -81.3500 249° West 161 185 4,000  Level Orlando TRACON
Tue 08:26:39 PM 28.0667 -81.4000 270° West 164 189 4,000  Level Orlando TRACON
Tue 08:27:39 PM 28.0667 -81.4500 270° West 162 186 4,000  Level Orlando TRACON
Tue 08:28:39 PM 28.0500 -81.5000 249° West 162 186 4,000  Level Orlando TRACON
Tue 08:30:53 PM 28.0333 -81.6167 261° West 162 186 4,000  Level Tampa TRACON
Tue 08:31:59 PM 28.0333 -81.6667 270° West 163 188 4,000  Level Tampa TRACON
Tue 08:32:59 PM 28.0167 -81.7167 249° West 158 182 4,000  Level Tampa TRACON
Tue 08:33:59 PM 28.0167 -81.7667 270° West 159 183 4,000  Level Tampa TRACON
Tue 08:34:59 PM 28.0167 -81.8167 270° West 159 183 4,000  Level Tampa TRACON
Tue 08:35:59 PM 28.0000 -81.8667 249° West 162 186 4,000  Level Tampa TRACON
Tue 08:36:59 PM 28.0000 -81.9167 270° West 161 185 4,000  Level Tampa TRACON
Tue 08:37:59 PM 28.0000 -81.9667 270° West 159 183 4,000  Level Tampa TRACON
Tue 08:38:59 PM 28.0000 -82.0167 270° West 160 184 4,000  Level Tampa TRACON
Tue 08:39:59 PM 28.0000 -82.0667 270° West 160 184 4,000  Level Tampa TRACON
Tue 08:40:59 PM 28.0000 -82.1167 270° West 158 182 4,000  Level Tampa TRACON
Tue 08:41:59 PM 28.0000 -82.1667 270° West 161 185 4,000  Level Tampa TRACON
Tue 08:42:59 PM 27.9833 -82.2167 249° West 160 184 4,000  Level Tampa TRACON
Tue 08:44:05 PM 27.9833 -82.2833 270° West 160 184 4,000  Level Tampa TRACON
Tue 08:45:05 PM 27.9833 -82.3333 270° West 161 185 4,000  Level Tampa TRACON
Tue 08:46:05 PM 27.9833 -82.3833 270° West 159 183 4,000  Level Tampa TRACON
Tue 08:47:05 PM 27.9833 -82.4333 270° West 160 184 4,000  Level Tampa TRACON
Tue 08:48:05 PM 27.9667 -82.4833 249° West 160 184 4,000  Level Tampa TRACON
Tue 08:49:05 PM 27.9667 -82.5333 270° West 162 186 4,000  Level Tampa TRACON
Tue 08:50:06 PM 27.9667 -82.5833 270° West 161 185 4,000  Level Tampa TRACON
Tue 08:51:06 PM 27.9667 -82.6333 270° West 160 184 4,000  Level Tampa TRACON
Tue 08:52:06 PM 27.9500 -82.6833 249° West 158 182 4,000 50 Level Tampa TRACON
Tue 08:53:06 PM 27.9167 -82.7167 221° Southwest 144 166 4,100 50 Climbing Tampa TRACON
Tue 08:54:06 PM 27.8833 -82.7333 204° Southwest 138 159 4,100 -53 Level Tampa TRACON
Tue 08:55:00 PM 27.8500 -82.7333 180° South 131 151 4,000 -105 Descending Tampa TRACON
Tue 08:56:00 PM 27.8167 -82.7333 180° South 131 151 3,900 -300 Descending Tampa TRACON
Tue 08:57:00 PM 27.7833 -82.7333 180° South 140 161 3,400 -500 Descending Tampa TRACON
Tue 08:58:00 PM 27.7500 -82.7000 138° Southeast 114 131 2,900 -619 Descending Tampa TRACON
Tue 08:59:06 PM 27.7500 -82.6667 90° East 97 112 2,100 -381 Descending Tampa TRACON
Tue 09:00:06 PM 27.7667 -82.6667 360° North 101 116 2,100 -53 Level Tampa TRACON
Tue 09:01:00 PM 27.8000 -82.6667 360° North 108 124 2,000 -389 Descending Tampa TRACON
Tue 09:01:54 PM 27.8167 -82.6667 360° North 101 116 1,400 -500 Descending Tampa TRACON
Tue 09:03:00 PM 27.8500 -82.6833 336° Northwest 90 104 1,000 -429 Descending Tampa TRACON
Tue 09:04:00 PM 27.8833 -82.6833 360° North 100 115 500 -103 Descending Tampa TRACON
Tue 09:05:54 PM 27.9167 -82.7000 336° Northwest 85 98 700 333 Climbing Tampa TRACON
Tue 09:07:00 PM 27.9500 -82.7167 336° Northwest 126 145 1,500 727 Climbing Tampa TRACON

Login

Don't have an account? Register now (free) for customized features, flight alerts, and more!